createdAt,value
2023-01-11T00:01:16.959Z,98403.63
2023-01-11T00:04:37.915Z,98397.09
2023-01-11T00:07:59.165Z,98402.28
2023-01-11T00:11:22.695Z,98385.66
2023-01-11T00:14:46.459Z,98404.97
2023-01-11T00:18:07.599Z,98397.06
2023-01-11T00:21:29.594Z,98394.69
2023-01-11T00:24:50.437Z,98385.94
2023-01-11T00:28:14.296Z,98385.56
2023-01-11T00:31:35.245Z,98383.31
2023-01-11T00:34:56.149Z,98385.22
2023-01-11T00:38:37.072Z,98392.31
2023-01-11T00:42:10.285Z,98390.66
2023-01-11T00:45:55.423Z,98397.56
2023-01-11T00:49:16.206Z,98396.09
2023-01-11T00:52:37.097Z,98400.66
2023-01-11T00:55:57.945Z,98400.81
2023-01-11T00:59:19.080Z,98400.31
2023-01-11T01:02:42.817Z,98405.94
2023-01-11T01:06:03.800Z,98409.56
2023-01-11T01:09:24.744Z,98409.94
2023-01-11T01:12:57.986Z,98411.59
2023-01-11T01:16:19.800Z,98407.75
2023-01-11T01:19:43.329Z,98405.56
2023-01-11T01:23:04.127Z,98399.19
2023-01-11T01:26:26.200Z,98404.28
2023-01-11T01:29:47.602Z,98407.03
2023-01-11T01:33:08.472Z,98410.47
2023-01-11T01:36:31.943Z,98402.03
2023-01-11T01:39:58.969Z,98399.25
2023-01-11T01:43:21.395Z,98396.03
2023-01-11T01:46:44.895Z,98405.31
2023-01-11T01:50:13.397Z,98383.34
2023-01-11T01:53:41.490Z,98393.03
2023-01-11T01:57:09.125Z,98391.78
2023-01-11T02:00:30.235Z,98384.13
2023-01-11T02:03:58.024Z,98387.72
2023-01-11T02:07:24.680Z,98393.03
2023-01-11T02:10:48.041Z,98384.16
2023-01-11T02:14:19.739Z,98379.50
2023-01-11T02:17:28.299Z,98379.34
2023-01-11T02:21:12.155Z,98376.16
2023-01-11T02:24:59.359Z,98381.22
2023-01-11T02:28:18.008Z,98378.88
2023-01-11T02:31:37.014Z,98376.06
2023-01-11T02:34:53.922Z,98373.34
2023-01-11T02:38:13.834Z,98376.97
2023-01-11T02:41:52.128Z,98371.72
2023-01-11T02:45:18.347Z,98370.63
2023-01-11T02:48:35.822Z,98374.66
2023-01-11T02:51:53.941Z,98370.63
2023-01-11T02:55:05.474Z,98380.88
2023-01-11T02:58:16.810Z,98381.16
2023-01-11T03:01:25.882Z,98380.19
2023-01-11T03:04:36.156Z,98378.53
2023-01-11T03:08:03.042Z,98375.69
2023-01-11T03:11:37.368Z,98373.97
2023-01-11T03:15:03.123Z,98378.03
2023-01-11T03:18:40.895Z,98374.31
2023-01-11T03:22:02.898Z,98373.41
2023-01-11T03:25:26.569Z,98380.22
2023-01-11T03:28:43.717Z,98372.19
2023-01-11T03:32:00.451Z,98375.91
2023-01-11T03:35:26.991Z,98367.75
2023-01-11T03:38:44.411Z,98371.34
2023-01-11T03:41:57.447Z,98364.13
2023-01-11T03:45:07.840Z,98369.13
2023-01-11T03:48:21.618Z,98358.31
2023-01-11T03:51:41.946Z,98355.56
2023-01-11T03:54:48.616Z,98360.56
2023-01-11T03:57:58.691Z,98357.69
2023-01-11T04:01:06.831Z,98352.84
2023-01-11T04:04:13.898Z,98363.50
2023-01-11T04:07:22.866Z,98348.88
2023-01-11T04:10:29.901Z,98357.78
2023-01-11T04:13:36.042Z,98353.97
2023-01-11T04:16:43.146Z,98349.75
2023-01-11T04:19:49.349Z,98357.75
2023-01-11T04:22:59.002Z,98355.06
2023-01-11T04:26:05.295Z,98362.94
2023-01-11T04:29:13.756Z,98357.09
2023-01-11T04:32:19.958Z,98353.13
2023-01-11T04:35:26.944Z,98348.03
2023-01-11T04:38:36.615Z,98349.06
2023-01-11T04:41:55.898Z,98352.38
2023-01-11T04:45:01.928Z,98344.13
2023-01-11T04:48:09.610Z,98345.78
2023-01-11T04:51:15.593Z,98346.78
2023-01-11T04:54:25.139Z,98339.03
2023-01-11T04:57:31.184Z,98339.50
2023-01-11T05:00:38.132Z,98324.75
2023-01-11T05:03:44.298Z,98325.22
2023-01-11T05:06:51.473Z,98328.88
2023-01-11T05:10:00.303Z,98325.72
2023-01-11T05:13:07.261Z,98312.41
2023-01-11T05:16:16.400Z,98308.00
2023-01-11T05:19:23.694Z,98309.91
2023-01-11T05:22:29.779Z,98312.78
2023-01-11T05:25:39.231Z,98300.88
2023-01-11T05:28:45.313Z,98305.88
2023-01-11T05:31:52.841Z,98303.72
2023-01-11T05:34:58.799Z,98300.03
2023-01-11T05:38:05.687Z,98309.94
2023-01-11T05:41:16.712Z,98312.31
2023-01-11T05:44:36.021Z,98311.75
2023-01-11T05:47:42.148Z,98313.63
2023-01-11T05:50:54.419Z,98306.59
2023-01-11T05:54:00.736Z,98306.00
2023-01-11T05:57:12.134Z,98294.91
2023-01-11T06:00:19.928Z,98293.25
2023-01-11T06:03:29.283Z,98292.03
2023-01-11T06:06:36.533Z,98295.88
2023-01-11T06:09:43.596Z,98295.47
2023-01-11T06:13:16.891Z,98302.19
2023-01-11T06:16:25.395Z,98288.56
2023-01-11T06:19:31.491Z,98297.53
2023-01-11T06:22:38.450Z,98297.16
2023-01-11T06:25:45.490Z,98293.09
2023-01-11T06:28:55.632Z,98287.16
2023-01-11T06:32:01.688Z,98291.31
2023-01-11T06:35:09.999Z,98291.91
2023-01-11T06:38:19.524Z,98287.25
2023-01-11T06:41:26.542Z,98282.75
2023-01-11T06:44:36.258Z,98288.69
2023-01-11T06:47:43.232Z,98293.34
2023-01-11T06:50:51.363Z,98300.81
2023-01-11T06:53:58.305Z,98298.56
2023-01-11T06:57:04.443Z,98295.97
2023-01-11T07:00:16.575Z,98297.53
2023-01-11T07:03:24.379Z,98299.66
2023-01-11T07:06:32.304Z,98305.72
2023-01-11T07:09:53.257Z,98297.03
2023-01-11T07:13:16.391Z,98304.00
2023-01-11T07:16:39.977Z,98302.84
2023-01-11T07:20:00.988Z,98298.69
2023-01-11T07:23:22.299Z,98286.53
2023-01-11T07:26:44.050Z,98271.75
2023-01-11T07:29:53.755Z,98262.44
2023-01-11T07:33:06.538Z,98269.97
2023-01-11T07:36:13.705Z,98258.28
2023-01-11T07:39:19.823Z,98263.41
2023-01-11T07:42:39.316Z,98256.81
2023-01-11T07:45:51.833Z,98262.06
2023-01-11T07:49:01.301Z,98258.13
2023-01-11T07:52:07.747Z,98247.78
2023-01-11T07:55:14.843Z,98254.00
2023-01-11T07:58:20.941Z,98254.34
2023-01-11T08:01:29.014Z,98248.97
2023-01-11T08:04:38.158Z,98233.69
2023-01-11T08:07:45.903Z,98252.78
2023-01-11T08:11:13.883Z,98246.25
2023-01-11T08:14:33.589Z,98243.19
2023-01-11T08:17:40.616Z,98242.97
2023-01-11T08:20:50.698Z,98248.75
2023-01-11T08:23:57.325Z,98244.19
2023-01-11T08:27:04.641Z,98242.66
2023-01-11T08:30:13.043Z,98246.22
2023-01-11T08:33:20.179Z,98250.75
2023-01-11T08:36:28.967Z,98254.09
2023-01-11T08:39:36.264Z,98254.22
2023-01-11T08:42:42.679Z,98257.91
2023-01-11T08:45:49.660Z,98268.66
2023-01-11T08:48:56.182Z,98261.84
2023-01-11T08:52:05.682Z,98263.75
2023-01-11T08:55:12.360Z,98264.34
2023-01-11T08:58:21.485Z,98264.22
2023-01-11T09:01:28.085Z,98267.28
2023-01-11T09:04:35.677Z,98262.59
2023-01-11T09:07:44.497Z,98262.38
2023-01-11T09:10:52.039Z,98265.97
2023-01-11T09:13:58.215Z,98255.72
2023-01-11T09:17:05.228Z,98259.66
2023-01-11T09:20:13.902Z,98248.38
2023-01-11T09:23:23.733Z,98254.50
2023-01-11T09:26:29.839Z,98260.25
2023-01-11T09:29:37.560Z,98256.16
2023-01-11T09:32:44.452Z,98254.94
2023-01-11T09:35:51.792Z,98245.41
2023-01-11T09:39:02.433Z,98249.97
2023-01-11T09:42:36.779Z,98247.28
2023-01-11T09:45:47.119Z,98236.53
2023-01-11T09:49:03.570Z,98236.06
2023-01-11T09:52:29.519Z,98235.28
2023-01-11T09:55:46.786Z,98243.94
2023-01-11T09:59:15.137Z,98241.50
2023-01-11T10:02:45.704Z,98234.78
2023-01-11T10:06:14.022Z,98224.56
2023-01-11T10:18:39.747Z,98193.09
2023-01-11T10:20:50.730Z,98193.13
2023-01-11T10:24:08.794Z,98192.72
2023-01-11T10:27:25.688Z,98192.59
2023-01-11T10:30:53.947Z,98186.47
2023-01-11T10:34:24.956Z,98186.31
2023-01-11T10:37:57.544Z,98181.34
2023-01-11T10:41:26.569Z,98153.69
2023-01-11T10:44:46.878Z,98158.25
2023-01-11T10:48:05.789Z,98157.09
2023-01-11T10:51:28.201Z,98160.56
2023-01-11T10:54:39.383Z,98163.66
2023-01-11T10:58:11.287Z,98159.53
2023-01-11T11:01:39.045Z,98144.19
2023-01-11T11:05:17.848Z,98148.13
2023-01-11T11:08:36.943Z,98146.19
2023-01-11T11:11:57.967Z,98149.75
2023-01-11T11:15:16.702Z,98143.69
2023-01-11T11:18:23.667Z,98140.56
2023-01-11T11:21:41.422Z,98137.13
2023-01-11T11:24:58.416Z,98133.25
2023-01-11T11:28:09.116Z,98123.09
2023-01-11T11:31:16.169Z,98114.44
2023-01-11T11:34:27.579Z,98118.53
2023-01-11T11:37:45.588Z,98105.59
2023-01-11T11:41:03.610Z,98100.53
2023-01-11T11:44:21.763Z,98094.06
2023-01-11T11:47:27.961Z,98092.16
2023-01-11T11:50:44.644Z,98104.97
2023-01-11T11:53:58.118Z,98106.06
2023-01-11T11:57:20.483Z,98093.66
2023-01-11T12:00:32.229Z,98091.09
2023-01-11T12:03:39.199Z,98092.41
2023-01-11T12:06:49.253Z,98088.06
2023-01-11T12:10:08.720Z,98080.75
2023-01-11T12:13:33.254Z,98074.72
2023-01-11T12:16:44.829Z,98067.75
2023-01-11T12:19:50.895Z,98062.69
2023-01-11T12:23:21.673Z,98058.00
2023-01-11T12:26:41.395Z,98063.44
2023-01-11T12:30:10.862Z,98052.84
2023-01-11T12:33:45.206Z,98048.25
2023-01-11T12:37:11.701Z,98046.59
2023-01-11T12:40:35.730Z,98042.59
2023-01-11T12:44:07.966Z,98036.34
2023-01-11T12:47:55.344Z,98021.31
2023-01-11T12:51:26.051Z,98019.44
2023-01-11T12:54:55.837Z,98011.56
2023-01-11T12:58:16.546Z,98006.88
2023-01-11T13:01:47.432Z,98002.22
2023-01-11T13:05:11.932Z,97993.28
2023-01-11T13:08:37.524Z,97995.88
2023-01-11T13:12:00.636Z,97981.91
2023-01-11T13:15:35.169Z,97980.09
2023-01-11T13:19:01.413Z,97974.22
2023-01-11T13:22:18.502Z,97976.94
2023-01-11T13:25:31.845Z,97972.28
2023-01-11T13:28:45.095Z,97965.63
2023-01-11T13:31:55.721Z,97967.00
2023-01-11T13:35:18.397Z,97958.84
2023-01-11T13:38:44.844Z,97960.28
2023-01-11T13:41:58.163Z,97956.25
2023-01-11T13:45:20.573Z,97957.34
2023-01-11T13:48:36.744Z,97969.69
2023-01-11T13:51:59.412Z,97965.78
2023-01-11T13:55:25.322Z,97954.81
2023-01-11T13:58:45.483Z,97962.31
2023-01-11T14:02:06.185Z,97959.31
2023-01-11T14:05:21.866Z,97963.91
2023-01-11T14:09:12.096Z,97962.63
2023-01-11T14:12:39.976Z,97968.19
2023-01-11T14:16:01.944Z,97956.09
2023-01-11T14:19:25.399Z,97958.63
2023-01-11T14:22:46.164Z,97967.50
2023-01-11T14:26:59.034Z,97958.09
2023-01-11T14:30:40.328Z,97952.44
2023-01-11T14:34:35.769Z,97964.19
2023-01-11T14:38:28.801Z,97963.09
2023-01-11T14:42:31.135Z,97963.38
2023-01-11T14:46:18.415Z,97962.16
2023-01-11T14:50:00.469Z,97961.59
2023-01-11T14:53:12.857Z,97955.06
2023-01-11T14:56:40.052Z,97956.59
2023-01-11T14:59:48.721Z,97953.13
2023-01-11T15:03:19.783Z,97946.91
2023-01-11T15:06:26.989Z,97931.81
2023-01-11T15:09:49.489Z,97935.69
2023-01-11T15:13:00.213Z,97922.13
2023-01-11T15:16:35.395Z,97900.78
2023-01-11T15:19:47.462Z,97918.22
2023-01-11T15:23:02.886Z,97921.97
2023-01-11T15:26:11.351Z,97921.28
2023-01-11T15:29:27.165Z,97921.56
2023-01-11T15:32:38.959Z,97915.47
2023-01-11T15:36:05.396Z,97890.97
2023-01-11T15:39:15.599Z,97896.19
2023-01-11T15:43:21.311Z,97892.56
2023-01-11T15:47:08.533Z,97900.69
2023-01-11T15:50:55.420Z,97902.09
2023-01-11T15:54:47.689Z,97896.41
2023-01-11T15:58:48.111Z,97888.81
2023-01-11T16:02:44.789Z,97894.63
2023-01-11T16:06:10.477Z,97892.94
2023-01-11T16:09:46.894Z,97887.91
2023-01-11T16:13:26.545Z,97886.97
2023-01-11T16:16:40.209Z,97881.28
2023-01-11T16:19:53.337Z,97890.47
2023-01-11T16:23:07.672Z,97882.66
2023-01-11T16:26:22.567Z,97884.84
2023-01-11T16:29:35.636Z,97886.75
2023-01-11T16:32:42.682Z,97883.53
2023-01-11T16:35:48.901Z,97900.53
2023-01-11T16:39:13.705Z,97892.78
2023-01-11T16:42:21.487Z,97892.50
2023-01-11T16:45:45.177Z,97891.97
2023-01-11T16:48:51.257Z,97892.75
2023-01-11T16:52:01.303Z,97880.41
2023-01-11T16:55:25.733Z,97894.16
2023-01-11T16:58:36.350Z,97883.25
2023-01-11T17:01:55.548Z,97887.09
2023-01-11T17:05:02.654Z,97889.97
2023-01-11T17:08:30.926Z,97887.72
2023-01-11T17:11:50.235Z,97882.03
2023-01-11T17:15:26.119Z,97879.75
2023-01-11T17:18:33.484Z,97880.53
2023-01-11T17:21:39.962Z,97866.19
2023-01-11T17:24:55.648Z,97892.69
2023-01-11T17:28:09.642Z,97883.59
2023-01-11T17:31:28.378Z,97894.81
2023-01-11T17:34:36.810Z,97884.31
2023-01-11T17:37:45.889Z,97884.03
2023-01-11T17:40:53.206Z,97885.00
2023-01-11T17:44:15.790Z,97868.53
2023-01-11T17:47:23.504Z,97878.09
2023-01-11T17:50:38.574Z,97880.72
2023-01-11T17:53:53.489Z,97882.22
2023-01-11T17:57:04.068Z,97874.63
2023-01-11T18:00:30.068Z,97879.19
2023-01-11T18:03:46.290Z,97877.25
2023-01-11T18:06:58.037Z,97877.38
2023-01-11T18:10:04.960Z,97865.03
2023-01-11T18:13:31.611Z,97868.91
2023-01-11T18:17:03.544Z,97872.09
2023-01-11T18:20:39.507Z,97877.47
2023-01-11T18:23:46.413Z,97879.56
2023-01-11T18:27:08.026Z,97856.84
2023-01-11T18:30:41.446Z,97863.72
2023-01-11T18:33:50.441Z,97869.00
2023-01-11T18:37:01.701Z,97864.72
2023-01-11T18:40:09.473Z,97865.81
2023-01-11T18:43:18.207Z,97857.47
2023-01-11T18:46:24.771Z,97861.09
2023-01-11T18:49:34.789Z,97858.03
2023-01-11T18:52:41.120Z,97858.06
2023-01-11T18:55:49.410Z,97877.47
2023-01-11T18:58:55.792Z,97870.28
2023-01-11T19:05:47.840Z,97870.97
2023-01-11T19:08:55.053Z,97867.53
2023-01-11T19:12:01.228Z,97864.91
2023-01-11T19:15:09.597Z,97858.28
2023-01-11T19:18:16.438Z,97868.91
2023-01-11T19:21:26.158Z,97872.53
2023-01-11T19:24:32.474Z,97863.25
2023-01-11T19:27:40.061Z,97856.59
2023-01-11T19:30:46.311Z,97864.34
2023-01-11T19:33:53.444Z,97866.03
2023-01-11T19:37:02.328Z,97857.03
2023-01-11T19:40:11.780Z,97860.91
2023-01-11T19:43:18.002Z,97861.72
2023-01-11T19:46:31.729Z,97855.38
2023-01-11T19:49:38.407Z,97865.91
2023-01-11T19:52:49.637Z,97864.22
2023-01-11T19:55:55.867Z,97866.28
2023-01-11T19:59:03.278Z,97864.06
2023-01-11T20:02:10.086Z,97859.56
2023-01-11T20:05:17.113Z,97868.81
2023-01-11T20:08:25.933Z,97869.31
2023-01-11T20:11:32.967Z,97863.22
2023-01-11T20:14:40.898Z,97864.72
2023-01-11T20:17:48.128Z,97852.94
2023-01-11T20:20:59.075Z,97877.25
2023-01-11T20:24:09.991Z,97878.78
2023-01-11T20:27:16.304Z,97875.97
2023-01-11T20:30:23.677Z,97893.88
2023-01-11T20:33:30.952Z,97903.09
2023-01-11T20:36:38.069Z,97915.25
2023-01-11T20:39:47.252Z,97920.25
2023-01-11T20:42:54.375Z,97935.03
2023-01-11T20:46:00.596Z,97937.63
2023-01-11T20:49:10.033Z,97938.72
2023-01-11T20:52:16.564Z,97942.88
2023-01-11T20:55:26.431Z,97940.38
2023-01-11T20:58:32.788Z,97935.41
2023-01-11T21:01:41.254Z,97941.84
2023-01-11T21:04:47.355Z,97945.16
2023-01-11T21:07:56.617Z,97940.69
2023-01-11T21:11:12.474Z,97935.66
2023-01-11T21:14:19.579Z,97932.84
2023-01-11T21:17:25.774Z,97923.63
2023-01-11T21:20:33.504Z,97919.22
2023-01-11T21:23:39.593Z,97923.84
2023-01-11T21:26:49.340Z,97924.78
2023-01-11T21:29:55.508Z,97936.63
2023-01-11T21:33:02.543Z,97935.13
2023-01-11T21:36:14.076Z,97931.81
2023-01-11T21:39:21.576Z,97922.13
2023-01-11T21:42:30.646Z,97919.59
2023-01-11T21:45:37.647Z,97921.72
2023-01-11T21:48:43.719Z,97924.06
2023-01-11T21:51:50.725Z,97924.63
2023-01-11T21:54:56.907Z,97928.84
2023-01-11T21:58:06.441Z,97934.53
2023-01-11T22:01:14.475Z,97941.25
2023-01-11T22:04:24.776Z,97943.19
2023-01-11T22:07:32.074Z,97938.31
2023-01-11T22:10:39.572Z,97930.97
2023-01-11T22:13:48.651Z,97936.38
2023-01-11T22:16:56.434Z,97943.16
2023-01-11T22:20:02.513Z,97946.03
2023-01-11T22:23:09.377Z,97945.59
2023-01-11T22:26:17.978Z,97945.34
2023-01-11T22:29:29.749Z,97954.69
2023-01-11T22:32:35.887Z,97960.69
2023-01-11T22:35:43.001Z,97960.59
2023-01-11T22:38:49.654Z,97961.47
2023-01-11T22:41:56.760Z,97965.13
2023-01-11T22:45:05.683Z,97973.38
2023-01-11T22:48:12.636Z,97979.06
2023-01-11T22:51:22.273Z,97983.97
2023-01-11T22:54:29.402Z,97975.53
2023-01-11T22:57:35.610Z,97993.28
2023-01-11T23:00:45.263Z,97987.91
2023-01-11T23:03:52.092Z,97991.91
2023-01-11T23:06:59.354Z,97997.34
2023-01-11T23:10:08.792Z,97997.19
2023-01-11T23:13:28.190Z,97996.50
2023-01-11T23:16:37.369Z,97985.13
2023-01-11T23:19:45.874Z,97997.75
2023-01-11T23:22:53.932Z,97999.41
2023-01-11T23:26:00.953Z,98006.88
2023-01-11T23:29:08.267Z,98011.31
2023-01-11T23:32:17.757Z,98003.69
2023-01-11T23:35:24.194Z,98008.81
2023-01-11T23:38:34.328Z,98010.63
2023-01-11T23:41:52.792Z,97988.56
2023-01-11T23:45:01.188Z,98017.38
2023-01-11T23:48:07.495Z,98011.84
2023-01-11T23:51:14.455Z,98008.81
2023-01-11T23:54:20.873Z,98023.34
2023-01-11T23:57:29.704Z,98019.50
